Time;durP1;ratioP1;P1;durP2;ratioP2;P2;SDS_P1;SDS_P2;PMS_P1;PMS_P2;Temp;Humidity;BMP_temperature;BMP_pressure;BME280_temperature;BME280_humidity;BME280_pressure;Samples;Min_cycle;Max_cycle;Signal;HPM_P1;HPM_P2
2022/03/13 00:00:18;;;;;;;10.65;6.57;;;8.80;80.70;;;;;;5035630;28;20110;-89
2022/03/13 00:02:45;;;;;;;7.70;6.10;;;8.80;80.70;;;;;;5046917;28;20111;-88
2022/03/13 00:05:16;;;;;;;10.52;6.70;;;8.80;80.80;;;;;;5035011;28;20042;-88
2022/03/13 00:07:44;;;;;;;9.50;6.28;;;8.80;80.80;;;;;;5037254;28;20087;-88
2022/03/13 00:10:16;;;;;;;10.32;6.38;;;8.80;80.90;;;;;;5037094;28;20049;-89
2022/03/13 00:12:43;;;;;;;10.93;6.50;;;8.80;80.90;;;;;;5036613;28;20098;-88
2022/03/13 00:15:12;;;;;;;9.15;6.15;;;8.80;81.00;;;;;;5032922;28;20054;-88
2022/03/13 00:17:39;;;;;;;9.35;6.40;;;8.80;81.00;;;;;;5037487;28;20045;-88
2022/03/13 00:20:08;;;;;;;9.90;6.63;;;8.80;81.10;;;;;;5036866;28;20551;-89
2022/03/13 00:22:37;;;;;;;8.50;6.20;;;8.80;81.10;;;;;;5036520;28;20073;-88
2022/03/13 00:25:09;;;;;;;9.82;5.75;;;8.80;81.20;;;;;;5036911;28;20107;-88
2022/03/13 00:27:37;;;;;;;8.68;6.10;;;8.80;81.20;;;;;;5035416;28;20045;-88
2022/03/13 00:30:05;;;;;;;10.30;6.82;;;8.80;81.30;;;;;;5033330;28;20121;-88
2022/03/13 00:32:32;;;;;;;9.75;6.55;;;8.80;81.30;;;;;;5038388;28;20422;-88
2022/03/13 00:35:00;;;;;;;8.15;6.10;;;8.80;81.40;;;;;;5036594;28;20053;-89
2022/03/13 00:37:26;;;;;;;10.38;7.13;;;8.80;81.40;;;;;;5036582;28;20506;-88
2022/03/13 00:39:55;;;;;;;10.00;6.57;;;8.80;81.50;;;;;;5035357;28;20055;-88
2022/03/13 00:42:23;;;;;;;9.57;7.20;;;8.80;81.50;;;;;;5033270;28;20472;-88
2022/03/13 00:44:50;;;;;;;8.60;5.90;;;8.80;81.60;;;;;;5036345;28;20076;-88
2022/03/13 00:47:19;;;;;;;9.65;6.60;;;8.80;81.60;;;;;;5037125;28;20049;-87
2022/03/13 00:49:47;;;;;;;11.02;7.18;;;8.80;81.70;;;;;;5036266;28;20053;-88
2022/03/13 00:52:14;;;;;;;9.75;7.00;;;8.70;81.70;;;;;;5036498;28;20053;-88
2022/03/13 00:54:41;;;;;;;11.30;6.93;;;8.80;81.70;;;;;;5035682;28;20095;-88
2022/03/13 00:57:09;;;;;;;11.05;6.85;;;8.80;81.80;;;;;;5032490;28;20041;-88
2022/03/13 00:59:36;;;;;;;9.50;6.50;;;8.80;81.80;;;;;;5038257;28;20053;-88
2022/03/13 01:02:03;;;;;;;10.20;6.85;;;8.80;81.80;;;;;;5035893;28;20049;-88
2022/03/13 01:04:30;;;;;;;9.57;6.75;;;8.80;81.90;;;;;;5036219;28;20045;-89
2022/03/13 01:06:57;;;;;;;10.10;6.93;;;8.80;81.90;;;;;;5036222;28;20049;-87
2022/03/13 01:09:24;;;;;;;9.82;6.57;;;8.80;81.90;;;;;;5033193;28;20120;-88
2022/03/13 01:11:51;;;;;;;8.48;6.85;;;8.70;82.00;;;;;;5035658;28;20053;-88
2022/03/13 01:14:20;;;;;;;8.57;6.68;;;8.70;82.00;;;;;;5037029;28;20053;-88
2022/03/13 01:16:47;;;;;;;10.43;6.80;;;8.80;82.00;;;;;;5034362;28;20107;-88
2022/03/13 01:19:14;;;;;;;10.13;6.88;;;8.80;82.00;;;;;;5035950;28;20053;-88
2022/03/13 01:21:42;;;;;;;9.82;6.65;;;8.70;82.00;;;;;;5035003;28;20509;-88
2022/03/13 01:24:15;;;;;;;8.20;6.47;;;8.80;82.10;;;;;;5030625;28;20099;-88
2022/03/13 01:26:43;;;;;;;12.50;6.65;;;8.70;82.10;;;;;;5045318;28;20053;-88
2022/03/13 01:29:12;;;;;;;11.00;6.85;;;8.70;82.10;;;;;;5033180;28;20076;-89
2022/03/13 01:31:43;;;;;;;10.07;7.10;;;8.70;82.20;;;;;;5034176;28;20052;-88
2022/03/13 01:34:26;;;;;;;12.05;6.57;;;8.70;82.20;;;;;;5033582;28;20100;-88
2022/03/13 01:36:53;;;;;;;7.60;6.07;;;8.70;82.20;;;;;;5035247;28;20072;-88
2022/03/13 01:39:20;;;;;;;8.82;6.00;;;8.70;82.20;;;;;;5031997;28;20049;-88
2022/03/13 01:41:47;;;;;;;14.00;7.10;;;8.70;82.20;;;;;;5035872;28;20103;-88
2022/03/13 01:44:14;;;;;;;9.65;6.60;;;8.70;82.20;;;;;;5036061;28;20041;-89
2022/03/13 01:46:40;;;;;;;10.60;7.75;;;8.70;82.30;;;;;;5042547;28;20049;-88
2022/03/13 01:49:08;;;;;;;9.85;6.90;;;8.70;82.30;;;;;;5043557;28;20052;-88
2022/03/13 01:51:35;;;;;;;11.52;7.05;;;8.70;82.30;;;;;;5033900;28;20041;-88
2022/03/13 01:54:06;;;;;;;11.45;7.63;;;8.80;82.30;;;;;;5032063;28;20049;-89
2022/03/13 01:56:35;;;;;;;11.48;7.40;;;8.70;82.30;;;;;;5036064;28;20053;-88
2022/03/13 01:59:04;;;;;;;10.07;8.27;;;8.80;82.40;;;;;;5033346;28;20472;-87
2022/03/13 02:01:31;;;;;;;11.48;7.53;;;8.70;82.40;;;;;;5035150;28;20038;-88
2022/03/13 02:03:58;;;;;;;9.38;7.75;;;8.70;82.40;;;;;;5035127;28;20045;-88
2022/03/13 02:06:26;;;;;;;9.98;7.38;;;8.80;82.40;;;;;;5031443;28;20128;-88
2022/03/13 02:08:54;;;;;;;9.80;7.35;;;8.80;82.50;;;;;;5032612;28;20050;-89
2022/03/13 02:11:23;;;;;;;11.43;7.57;;;8.80;82.50;;;;;;5036630;28;20458;-88
2022/03/13 02:13:52;;;;;;;10.48;7.82;;;8.80;82.50;;;;;;5042249;28;20409;-88
2022/03/13 02:16:20;;;;;;;11.23;7.90;;;8.70;82.50;;;;;;5041567;28;20052;-88
2022/03/13 02:18:53;;;;;;;12.07;7.95;;;8.80;82.60;;;;;;5034896;28;20041;-88
2022/03/13 02:21:25;;;;;;;10.63;7.93;;;8.80;82.60;;;;;;5031498;28;20049;-88
2022/03/13 02:23:55;;;;;;;13.35;8.02;;;8.70;82.60;;;;;;5033809;28;20430;-89
2022/03/13 02:26:22;;;;;;;10.30;7.50;;;8.70;82.60;;;;;;5034586;28;20050;-88
2022/03/13 02:28:52;;;;;;;13.52;8.35;;;8.80;82.60;;;;;;5034261;28;20095;-88
2022/03/13 02:31:34;;;;;;;9.73;7.68;;;8.70;82.60;;;;;;5034762;28;20041;-88
2022/03/13 02:34:01;;;;;;;15.00;7.57;;;8.70;82.60;;;;;;5034643;28;20052;-88
2022/03/13 02:36:31;;;;;;;12.50;7.57;;;8.70;82.60;;;;;;5031022;28;20046;-88
2022/03/13 02:38:58;;;;;;;9.43;7.13;;;8.80;82.60;;;;;;5032079;28;20050;-88
2022/03/13 02:41:28;;;;;;;10.10;7.38;;;8.80;82.60;;;;;;5036718;28;20049;-88
2022/03/13 02:43:56;;;;;;;9.85;7.60;;;8.70;82.60;;;;;;5034309;28;20057;-89
2022/03/13 02:46:42;;;;;;;9.63;6.82;;;8.70;82.60;;;;;;5036418;28;20045;-89
2022/03/13 02:49:09;;;;;;;11.98;8.30;;;8.70;82.60;;;;;;5038693;28;20171;-88
2022/03/13 02:51:37;;;;;;;10.95;8.00;;;8.70;82.50;;;;;;5037374;28;20461;-88
2022/03/13 02:54:03;;;;;;;11.30;7.82;;;8.70;82.50;;;;;;5035206;28;20056;-88
2022/03/13 02:56:31;;;;;;;9.52;7.05;;;8.70;82.50;;;;;;5040547;28;20049;-89
2022/03/13 02:58:57;;;;;;;11.48;7.88;;;8.80;82.50;;;;;;5038081;28;20049;-88
2022/03/13 03:01:24;;;;;;;9.27;7.03;;;8.70;82.50;;;;;;5038353;28;20046;-89
2022/03/13 03:04:00;;;;;;;11.02;7.28;;;8.80;82.50;;;;;;5038382;28;20136;-88
2022/03/13 03:06:31;;;;;;;10.68;6.90;;;8.80;82.40;;;;;;5035914;28;20095;-89
2022/03/13 03:09:03;;;;;;;9.95;6.97;;;8.80;82.40;;;;;;5035694;28;20421;-89
2022/03/13 03:11:33;;;;;;;9.48;7.13;;;8.80;82.30;;;;;;5039824;28;20050;-89
2022/03/13 03:14:02;;;;;;;10.45;7.25;;;8.80;82.30;;;;;;5038160;28;20054;-88
2022/03/13 03:16:30;;;;;;;11.25;7.22;;;8.80;82.30;;;;;;5038173;28;20456;-88
2022/03/13 03:18:58;;;;;;;12.68;7.15;;;8.70;82.20;;;;;;5038108;28;20099;-89
2022/03/13 03:21:26;;;;;;;9.85;6.90;;;8.80;82.20;;;;;;5035219;28;20080;-88
2022/03/13 03:23:53;;;;;;;8.90;6.57;;;8.70;82.10;;;;;;5036894;28;20132;-88
2022/03/13 03:26:20;;;;;;;10.90;7.25;;;8.70;82.10;;;;;;5039095;28;20064;-87
2022/03/13 03:28:47;;;;;;;9.32;7.00;;;8.70;82.00;;;;;;5037735;28;20057;-89
2022/03/13 03:31:14;;;;;;;9.43;7.57;;;8.70;82.00;;;;;;5037952;28;20041;-88
2022/03/13 03:33:42;;;;;;;10.02;6.97;;;8.70;82.00;;;;;;5037432;28;20053;-89
2022/03/13 03:36:16;;;;;;;9.25;6.97;;;8.70;81.90;;;;;;5033610;28;20045;-88
2022/03/13 03:38:43;;;;;;;9.55;7.10;;;8.70;81.90;;;;;;5047440;28;20513;-88
2022/03/13 03:41:10;;;;;;;10.35;6.72;;;8.70;81.80;;;;;;5035147;28;20046;-89
2022/03/13 03:43:37;;;;;;;9.70;6.57;;;8.70;81.80;;;;;;5037664;28;20088;-89
2022/03/13 03:46:04;;;;;;;9.25;7.07;;;8.60;81.80;;;;;;5036438;28;20041;-88
2022/03/13 03:48:32;;;;;;;8.93;6.65;;;8.60;81.70;;;;;;5035743;28;20073;-89
2022/03/13 03:50:59;;;;;;;9.18;6.75;;;8.60;81.70;;;;;;5034842;28;20477;-89
2022/03/13 03:53:25;;;;;;;10.55;7.13;;;8.60;81.70;;;;;;5039572;28;20053;-89
2022/03/13 03:55:52;;;;;;;8.88;6.57;;;8.70;81.70;;;;;;5035646;28;20155;-89
2022/03/13 03:58:21;;;;;;;10.90;6.95;;;8.60;81.70;;;;;;5036736;28;20046;-89
2022/03/13 04:00:48;;;;;;;9.82;6.78;;;8.60;81.70;;;;;;5036006;28;20517;-88
2022/03/13 04:03:16;;;;;;;8.38;6.90;;;8.60;81.80;;;;;;5032270;28;20038;-88
2022/03/13 04:05:43;;;;;;;9.30;7.32;;;8.60;81.80;;;;;;5038633;28;20087;-88
2022/03/13 04:08:10;;;;;;;10.45;6.95;;;8.60;81.80;;;;;;5036478;28;20045;-88
2022/03/13 04:10:37;;;;;;;9.13;6.93;;;8.60;81.80;;;;;;5036653;28;20522;-88
2022/03/13 04:13:04;;;;;;;9.55;7.05;;;8.60;81.80;;;;;;5037156;28;20048;-89
2022/03/13 04:15:31;;;;;;;9.68;7.03;;;8.60;81.90;;;;;;5035037;28;20041;-88
2022/03/13 04:17:57;;;;;;;10.60;7.18;;;8.60;81.90;;;;;;5034770;28;20513;-89
2022/03/13 04:20:24;;;;;;;10.75;7.15;;;8.60;81.90;;;;;;5036861;28;20057;-88
2022/03/13 04:22:51;;;;;;;10.43;7.20;;;8.70;81.90;;;;;;5036854;28;20053;-89
2022/03/13 04:25:18;;;;;;;10.80;7.55;;;8.60;81.90;;;;;;5036675;28;20049;-88
2022/03/13 04:27:45;;;;;;;10.18;7.75;;;8.70;81.90;;;;;;5036935;28;20478;-87
2022/03/13 04:30:13;;;;;;;12.25;8.07;;;8.60;81.80;;;;;;5016683;28;20046;-88
2022/03/13 04:32:40;;;;;;;12.50;7.43;;;8.70;81.80;;;;;;5045902;28;20055;-88
2022/03/13 04:35:07;;;;;;;10.60;7.65;;;8.70;81.80;;;;;;5035465;28;20103;-88
2022/03/13 04:37:34;;;;;;;9.93;7.63;;;8.70;81.80;;;;;;5036691;28;20099;-88
2022/03/13 04:40:01;;;;;;;9.02;7.10;;;8.70;81.70;;;;;;5036387;28;20091;-87
2022/03/13 04:42:28;;;;;;;9.80;7.65;;;8.70;81.70;;;;;;5034219;28;20103;-88
2022/03/13 04:44:55;;;;;;;11.30;7.68;;;8.70;81.70;;;;;;5034892;28;20046;-88
2022/03/13 04:47:22;;;;;;;10.77;7.50;;;8.80;81.60;;;;;;5038287;28;20107;-88
2022/03/13 04:49:49;;;;;;;10.85;7.25;;;8.80;81.60;;;;;;5036506;28;20045;-88
2022/03/13 04:52:16;;;;;;;10.18;7.80;;;8.80;81.60;;;;;;5036372;28;20575;-87
2022/03/13 04:54:42;;;;;;;11.18;7.35;;;8.70;81.50;;;;;;5035679;28;20095;-88
2022/03/13 04:57:09;;;;;;;11.20;8.20;;;8.80;81.40;;;;;;5032205;28;20053;-89
2022/03/13 04:59:36;;;;;;;11.05;8.65;;;8.80;81.30;;;;;;5038268;28;20050;-88
2022/03/13 05:02:03;;;;;;;11.98;8.35;;;8.80;81.30;;;;;;5036201;28;20053;-88
2022/03/13 05:04:31;;;;;;;10.00;7.68;;;8.80;81.20;;;;;;5036318;28;20041;-88
2022/03/13 05:06:58;;;;;;;12.05;8.30;;;8.80;81.20;;;;;;5036076;28;20053;-88
2022/03/13 05:09:26;;;;;;;11.38;8.63;;;8.70;81.10;;;;;;5032117;28;20041;-88
2022/03/13 05:11:53;;;;;;;15.68;8.48;;;8.70;81.00;;;;;;5035214;28;20103;-88
2022/03/13 05:14:21;;;;;;;11.48;8.60;;;8.70;81.00;;;;;;5035583;28;20049;-88
2022/03/13 05:16:47;;;;;;;10.88;8.38;;;8.70;80.90;;;;;;5035854;28;20050;-88
2022/03/13 05:19:15;;;;;;;11.23;7.63;;;8.70;80.90;;;;;;5035878;28;20168;-88
2022/03/13 05:21:42;;;;;;;10.88;8.25;;;8.70;80.90;;;;;;5035293;28;20398;-88
2022/03/13 05:24:09;;;;;;;10.48;8.05;;;8.60;80.90;;;;;;5031392;28;20045;-88
2022/03/13 05:26:36;;;;;;;11.20;8.40;;;8.60;80.80;;;;;;5036621;28;20498;-89
2022/03/13 05:29:03;;;;;;;11.52;8.02;;;8.60;80.80;;;;;;5035581;28;20103;-88
2022/03/13 05:31:30;;;;;;;12.35;9.00;;;8.60;80.80;;;;;;5034215;28;20095;-88
2022/03/13 05:33:57;;;;;;;12.35;8.75;;;8.60;80.80;;;;;;5035690;28;20049;-89
2022/03/13 05:36:24;;;;;;;12.90;8.52;;;8.50;80.80;;;;;;5032594;28;20056;-88
2022/03/13 05:38:51;;;;;;;10.73;8.48;;;8.50;80.80;;;;;;5051076;28;20041;-88
2022/03/13 05:41:20;;;;;;;13.18;8.57;;;8.50;80.80;;;;;;5035542;28;20132;-88
2022/03/13 05:43:49;;;;;;;10.95;7.88;;;8.50;80.80;;;;;;5035435;28;20041;-89
2022/03/13 05:46:16;;;;;;;11.23;8.50;;;8.50;80.80;;;;;;5035492;28;20049;-87
2022/03/13 05:48:43;;;;;;;10.85;8.13;;;8.50;80.80;;;;;;5035032;28;20099;-88
2022/03/13 05:51:10;;;;;;;11.80;8.55;;;8.40;80.80;;;;;;5030946;28;20045;-87
2022/03/13 05:53:37;;;;;;;11.73;8.80;;;8.40;80.90;;;;;;5036103;28;20053;-88
2022/03/13 05:56:04;;;;;;;11.68;8.73;;;8.40;80.90;;;;;;5035223;28;20057;-88
2022/03/13 05:58:31;;;;;;;12.50;8.48;;;8.40;80.90;;;;;;5035226;28;20065;-88
2022/03/13 06:01:03;;;;;;;12.35;9.30;;;8.50;80.90;;;;;;5034877;28;20461;-89
2022/03/13 06:03:30;;;;;;;11.40;8.70;;;8.40;80.90;;;;;;5032937;28;20045;-88
2022/03/13 06:05:58;;;;;;;10.90;8.77;;;8.40;80.90;;;;;;5032588;28;20045;-88
2022/03/13 06:08:25;;;;;;;13.30;8.27;;;8.50;80.90;;;;;;5035121;28;20048;-87
2022/03/13 06:10:52;;;;;;;11.60;8.38;;;8.40;80.90;;;;;;5034913;28;20046;-88
2022/03/13 06:13:22;;;;;;;11.40;8.00;;;8.50;80.90;;;;;;5034888;28;20045;-88
2022/03/13 06:15:49;;;;;;;10.93;8.40;;;8.50;80.80;;;;;;5034882;28;20056;-88
2022/03/13 06:18:16;;;;;;;10.77;8.30;;;8.50;80.80;;;;;;5030980;28;20045;-88
2022/03/13 06:20:44;;;;;;;10.35;8.23;;;8.50;80.80;;;;;;5035392;28;20053;-88
2022/03/13 06:23:13;;;;;;;14.20;7.85;;;8.50;80.70;;;;;;5035295;28;20045;-87
2022/03/13 06:25:43;;;;;;;9.70;7.97;;;8.50;80.70;;;;;;5033567;28;20062;-88
2022/03/13 06:28:14;;;;;;;10.63;7.60;;;8.50;80.60;;;;;;5034773;28;20037;-88
2022/03/13 06:30:42;;;;;;;13.00;8.40;;;8.50;80.60;;;;;;5032607;28;20139;-88
2022/03/13 06:33:10;;;;;;;9.30;7.57;;;8.50;80.50;;;;;;5030609;28;20069;-87
2022/03/13 06:35:37;;;;;;;10.60;7.47;;;8.50;80.50;;;;;;5035058;28;20053;-88
2022/03/13 06:38:04;;;;;;;10.20;8.02;;;8.50;80.40;;;;;;5034636;28;20505;-88
2022/03/13 06:40:31;;;;;;;11.07;7.75;;;8.50;80.40;;;;;;5036411;28;20049;-87
2022/03/13 06:42:58;;;;;;;12.15;7.47;;;8.50;80.30;;;;;;5044239;28;20099;-87
2022/03/13 06:45:25;;;;;;;11.23;7.97;;;8.50;80.20;;;;;;5031867;28;20041;-88
2022/03/13 06:47:52;;;;;;;9.90;7.20;;;8.50;80.10;;;;;;5034052;28;20076;-87
2022/03/13 06:50:25;;;;;;;10.68;7.25;;;8.50;80.10;;;;;;5035684;28;20053;-87
2022/03/13 06:52:53;;;;;;;9.30;7.47;;;8.40;80.00;;;;;;5034614;28;20379;-87
2022/03/13 06:55:22;;;;;;;9.80;7.00;;;8.50;80.00;;;;;;5034566;28;20421;-87
2022/03/13 06:57:50;;;;;;;10.77;7.88;;;8.40;79.90;;;;;;5034557;28;20106;-88
2022/03/13 07:00:18;;;;;;;11.68;7.90;;;8.50;79.90;;;;;;5030551;28;20037;-87
2022/03/13 07:02:49;;;;;;;11.15;7.40;;;8.40;79.80;;;;;;5034713;28;20130;-88
2022/03/13 07:05:16;;;;;;;10.07;7.18;;;8.40;79.80;;;;;;5033923;28;20236;-87
2022/03/13 07:07:43;;;;;;;9.45;6.88;;;8.40;79.80;;;;;;5034401;28;20107;-87
2022/03/13 07:10:12;;;;;;;9.38;7.05;;;8.40;79.70;;;;;;5032754;28;20512;-87
2022/03/13 07:12:44;;;;;;;10.55;7.20;;;8.40;79.70;;;;;;5037862;28;20137;-87
2022/03/13 07:15:13;;;;;;;10.70;7.00;;;8.40;79.60;;;;;;5029783;28;20054;-87
2022/03/13 07:17:42;;;;;;;10.18;6.95;;;8.50;79.60;;;;;;5043096;28;20093;-87
2022/03/13 07:20:10;;;;;;;11.15;6.80;;;8.40;79.50;;;;;;5034178;28;20049;-86
2022/03/13 07:22:37;;;;;;;9.45;6.68;;;8.40;79.50;;;;;;5034348;28;20045;-88
2022/03/13 07:25:05;;;;;;;9.93;7.43;;;8.40;79.50;;;;;;5034202;28;20110;-86
2022/03/13 07:27:32;;;;;;;9.20;6.85;;;8.40;79.50;;;;;;5032384;28;20046;-87
2022/03/13 07:29:59;;;;;;;11.20;7.20;;;8.50;79.50;;;;;;5031501;28;20108;-87
2022/03/13 07:32:26;;;;;;;11.00;7.18;;;8.50;79.50;;;;;;5036390;28;20099;-83
2022/03/13 07:34:53;;;;;;;10.98;7.03;;;8.50;79.40;;;;;;5037823;28;20052;-87
2022/03/13 07:37:20;;;;;;;10.07;6.30;;;8.60;79.40;;;;;;5037732;28;20045;-88
2022/03/13 07:39:47;;;;;;;8.48;6.07;;;8.50;79.40;;;;;;5037836;28;20052;-88
2022/03/13 07:42:15;;;;;;;8.45;6.25;;;8.60;79.30;;;;;;5032448;28;20046;-87
2022/03/13 07:44:42;;;;;;;12.27;6.65;;;8.60;79.30;;;;;;5033109;28;20048;-87
2022/03/13 07:47:10;;;;;;;9.30;6.88;;;8.70;79.20;;;;;;5043626;28;20064;-87
2022/03/13 07:49:37;;;;;;;11.80;6.38;;;8.70;79.20;;;;;;5045583;28;20041;-87
2022/03/13 07:52:05;;;;;;;9.60;7.00;;;8.70;79.10;;;;;;5044741;28;20099;-86
2022/03/13 07:54:31;;;;;;;9.43;6.63;;;8.70;79.10;;;;;;5035280;28;20091;-87
2022/03/13 07:56:58;;;;;;;9.07;6.35;;;8.80;79.10;;;;;;5034121;28;20111;-88
2022/03/13 07:59:25;;;;;;;9.10;6.10;;;8.80;79.00;;;;;;5039013;28;20045;-87
2022/03/13 08:01:52;;;;;;;8.35;6.60;;;8.80;79.00;;;;;;5043926;28;20114;-86
2022/03/13 08:04:20;;;;;;;8.35;6.20;;;8.90;78.90;;;;;;5043180;28;20060;-88
2022/03/13 08:06:47;;;;;;;8.70;5.75;;;8.90;78.90;;;;;;5036922;28;20049;-87
2022/03/13 08:09:13;;;;;;;10.10;6.05;;;8.90;78.80;;;;;;5032886;28;20038;-87
2022/03/13 08:11:41;;;;;;;10.35;6.38;;;9.00;78.70;;;;;;5045612;28;20053;-86
2022/03/13 08:14:08;;;;;;;7.72;5.95;;;9.00;78.70;;;;;;5036737;28;20095;-87
2022/03/13 08:16:35;;;;;;;8.65;6.03;;;9.00;78.60;;;;;;5036439;28;20497;-88
2022/03/13 08:19:03;;;;;;;10.38;6.13;;;9.10;78.50;;;;;;5036451;28;20045;-87
2022/03/13 08:21:30;;;;;;;9.35;6.03;;;9.20;78.50;;;;;;5034646;28;20418;-87
2022/03/13 08:23:58;;;;;;;8.38;5.45;;;9.20;78.40;;;;;;5034492;28;20045;-87
2022/03/13 08:26:27;;;;;;;9.18;5.55;;;9.30;78.30;;;;;;5036224;28;20076;-87
2022/03/13 08:28:54;;;;;;;8.50;5.32;;;9.30;78.20;;;;;;5034917;28;20111;-87
2022/03/13 08:31:22;;;;;;;7.22;5.53;;;9.30;78.00;;;;;;5036136;28;20556;-87
2022/03/13 08:33:50;;;;;;;7.60;5.53;;;9.40;77.90;;;;;;5035365;28;20045;-88
2022/03/13 08:36:17;;;;;;;7.25;5.53;;;9.40;77.80;;;;;;5032205;28;20572;-87
2022/03/13 08:38:44;;;;;;;8.70;5.90;;;9.40;77.70;;;;;;5037432;28;20449;-87
2022/03/13 08:41:11;;;;;;;7.38;5.15;;;9.50;77.60;;;;;;5036655;28;20180;-88
2022/03/13 08:43:38;;;;;;;8.20;5.10;;;9.50;77.50;;;;;;5036182;28;20605;-87
2022/03/13 08:46:05;;;;;;;8.25;5.18;;;9.50;77.40;;;;;;5034648;28;20079;-88
2022/03/13 08:48:34;;;;;;;7.68;5.10;;;9.60;77.30;;;;;;5034120;28;20050;-87
2022/03/13 08:51:02;;;;;;;7.68;4.80;;;9.60;77.20;;;;;;5033184;28;20045;-88
2022/03/13 08:53:29;;;;;;;6.95;4.63;;;9.70;77.10;;;;;;5038054;28;20049;-88
2022/03/13 08:55:56;;;;;;;7.43;4.63;;;9.70;77.00;;;;;;5035777;28;20095;-87
2022/03/13 08:58:24;;;;;;;6.50;4.43;;;9.80;76.80;;;;;;5036063;28;20042;-88
2022/03/13 09:00:52;;;;;;;9.23;5.00;;;9.90;76.70;;;;;;5034332;28;20052;-88
2022/03/13 09:03:19;;;;;;;5.95;4.05;;;9.90;76.60;;;;;;5032037;28;20046;-88
2022/03/13 09:05:48;;;;;;;6.47;4.20;;;9.90;76.60;;;;;;5035456;28;20099;-88
2022/03/13 09:08:15;;;;;;;6.40;3.95;;;10.00;76.50;;;;;;5047240;28;20072;-87
2022/03/13 09:10:42;;;;;;;5.88;4.20;;;10.00;76.40;;;;;;5039319;28;20498;-87
2022/03/13 09:13:09;;;;;;;6.15;3.83;;;10.10;76.30;;;;;;5035791;28;20042;-86
2022/03/13 09:15:39;;;;;;;5.93;3.88;;;10.20;76.20;;;;;;5033874;28;20060;-86
2022/03/13 09:18:06;;;;;;;5.10;3.58;;;10.30;76.10;;;;;;5031645;28;20049;-88
2022/03/13 09:20:33;;;;;;;6.25;3.90;;;10.30;75.90;;;;;;5037533;28;20057;-86
2022/03/13 09:23:00;;;;;;;6.35;3.63;;;10.40;75.80;;;;;;5035572;28;20057;-87
2022/03/13 09:25:27;;;;;;;6.43;3.15;;;10.40;75.50;;;;;;5035139;28;20116;-87
2022/03/13 09:27:54;;;;;;;6.13;3.88;;;10.60;75.30;;;;;;5035405;28;20559;-87
2022/03/13 09:30:21;;;;;;;6.68;4.00;;;10.70;75.10;;;;;;5031415;28;20061;-87
2022/03/13 09:32:49;;;;;;;6.15;3.00;;;10.70;75.00;;;;;;5035191;28;20575;-86
2022/03/13 09:35:17;;;;;;;6.25;3.35;;;10.80;74.90;;;;;;5034050;28;20129;-87
2022/03/13 09:37:44;;;;;;;5.20;3.03;;;10.90;74.60;;;;;;5034929;28;20049;-88
2022/03/13 09:40:14;;;;;;;5.18;2.80;;;10.90;74.30;;;;;;5034827;28;20051;-87
2022/03/13 09:42:42;;;;;;;4.55;3.00;;;10.90;74.00;;;;;;5034500;28;20060;-86
2022/03/13 09:45:10;;;;;;;4.50;2.80;;;11.00;73.90;;;;;;5030110;28;20046;-86
2022/03/13 09:47:37;;;;;;;5.10;3.25;;;11.10;73.80;;;;;;5036318;28;20057;-86
2022/03/13 09:50:11;;;;;;;5.32;3.08;;;11.10;73.80;;;;;;5034915;28;20538;-87
2022/03/13 09:52:42;;;;;;;4.70;2.95;;;11.20;73.80;;;;;;5034968;28;20076;-86
2022/03/13 09:55:11;;;;;;;5.38;3.20;;;11.30;73.70;;;;;;5034173;28;20052;-86
2022/03/13 09:57:41;;;;;;;7.68;3.50;;;11.40;73.60;;;;;;5033420;28;20053;-86
2022/03/13 10:00:14;;;;;;;6.53;2.90;;;11.40;73.50;;;;;;5030949;28;20083;-86
2022/03/13 10:02:42;;;;;;;5.23;3.07;;;11.50;73.40;;;;;;5043660;28;20084;-86
2022/03/13 10:05:16;;;;;;;5.13;3.35;;;11.60;73.20;;;;;;5033495;28;20068;-86
2022/03/13 10:07:55;;;;;;;5.32;2.90;;;11.70;72.90;;;;;;5034801;28;20111;-87
2022/03/13 10:10:25;;;;;;;5.22;3.00;;;11.80;72.60;;;;;;5034297;28;20045;-86
2022/03/13 10:12:52;;;;;;;5.93;2.75;;;11.90;72.50;;;;;;5033295;28;20049;-86
2022/03/13 10:15:19;;;;;;;5.00;3.22;;;11.90;72.30;;;;;;5031008;28;20053;-86
2022/03/13 10:17:48;;;;;;;4.13;2.58;;;12.00;72.00;;;;;;5035084;28;20096;-86
2022/03/13 10:20:25;;;;;;;5.47;3.10;;;12.20;71.70;;;;;;5033932;28;20120;-86
2022/03/13 10:23:01;;;;;;;5.00;2.92;;;12.20;71.50;;;;;;5034561;28;20103;-86
2022/03/13 10:25:37;;;;;;;5.15;3.13;;;12.30;71.30;;;;;;5034315;28;20045;-86
2022/03/13 10:28:21;;;;;;;5.05;3.17;;;12.30;71.20;;;;;;5034082;28;20057;-86
2022/03/13 10:31:07;;;;;;;6.28;3.60;;;12.40;71.00;;;;;;5034393;28;20570;-86
2022/03/13 10:33:55;;;;;;;4.45;2.72;;;12.40;70.70;;;;;;5034243;28;20064;-86
2022/03/13 10:36:35;;;;;;;9.43;3.65;;;12.40;70.70;;;;;;5030967;28;20041;-86
2022/03/13 10:39:05;;;;;;;9.57;3.28;;;12.50;70.60;;;;;;5031172;28;20560;-85
2022/03/13 10:41:44;;;;;;;5.60;2.90;;;12.50;70.50;;;;;;5036582;28;20391;-86
2022/03/13 10:44:17;;;;;;;5.15;3.40;;;12.60;70.40;;;;;;5035276;28;20057;-86
2022/03/13 10:46:52;;;;;;;4.97;3.30;;;12.60;70.40;;;;;;5034530;28;20041;-85
2022/03/13 10:49:41;;;;;;;5.43;3.30;;;12.60;70.40;;;;;;5034568;28;20088;-86
2022/03/13 10:52:31;;;;;;;5.25;3.53;;;12.60;70.30;;;;;;5033371;28;20045;-86
2022/03/13 10:55:21;;;;;;;7.05;3.30;;;12.60;70.30;;;;;;5034487;28;20049;-86
2022/03/13 10:57:55;;;;;;;5.30;3.03;;;12.60;70.20;;;;;;5033976;28;20128;-86
2022/03/13 11:00:23;;;;;;;5.30;3.20;;;12.60;70.20;;;;;;5031082;28;20059;-86
2022/03/13 11:02:51;;;;;;;4.95;3.25;;;12.60;70.20;;;;;;5034139;28;20103;-86
2022/03/13 11:05:18;;;;;;;5.32;3.47;;;12.60;70.20;;;;;;5035516;28;20498;-85
2022/03/13 11:07:51;;;;;;;5.68;3.45;;;12.60;70.20;;;;;;5037003;28;20045;-86
2022/03/13 11:10:18;;;;;;;4.75;3.08;;;12.60;70.20;;;;;;5037905;28;20091;-86
2022/03/13 11:12:48;;;;;;;4.82;3.10;;;12.50;70.10;;;;;;5038088;28;20056;-87
2022/03/13 11:15:15;;;;;;;4.93;3.33;;;12.50;70.10;;;;;;5018611;28;20046;-86
2022/03/13 11:17:43;;;;;;;6.50;3.38;;;12.50;70.10;;;;;;5048310;28;20063;-86
2022/03/13 11:20:11;;;;;;;4.22;2.35;;;12.50;70.30;;;;;;5039094;28;20076;-86
2022/03/13 11:22:38;;;;;;;4.50;2.30;;;12.50;70.40;;;;;;5038224;28;20077;-85
2022/03/13 11:25:07;;;;;;;4.40;2.53;;;12.50;70.20;;;;;;5037724;28;20041;-86
2022/03/13 11:27:39;;;;;;;4.55;2.50;;;12.40;70.00;;;;;;5036363;28;20045;-86
2022/03/13 11:30:09;;;;;;;4.18;2.38;;;12.40;69.90;;;;;;5034354;28;20054;-86
2022/03/13 11:32:49;;;;;;;4.20;2.15;;;12.40;69.70;;;;;;5040014;28;20053;-86
2022/03/13 11:35:17;;;;;;;4.35;2.45;;;12.40;69.50;;;;;;5037557;28;20057;-86
2022/03/13 11:37:53;;;;;;;4.78;2.10;;;12.40;69.40;;;;;;5037794;28;20080;-86
2022/03/13 11:40:31;;;;;;;4.82;2.08;;;12.40;69.40;;;;;;5037531;28;20137;-86
2022/03/13 11:43:22;;;;;;;4.05;1.95;;;12.40;69.30;;;;;;5036401;28;20045;-86
2022/03/13 11:45:52;;;;;;;4.18;2.15;;;12.40;69.20;;;;;;5037801;28;20053;-87
2022/03/13 11:48:22;;;;;;;4.45;2.20;;;12.50;69.20;;;;;;5034078;28;20060;-86
2022/03/13 11:50:59;;;;;;;3.83;1.88;;;12.40;69.10;;;;;;5037517;28;20057;-86
2022/03/13 11:53:28;;;;;;;4.72;2.20;;;12.50;69.10;;;;;;5037604;28;20053;-83
2022/03/13 11:56:29;;;;;;;4.35;2.28;;;12.50;69.00;;;;;;5036771;28;20128;-86
2022/03/13 11:59:13;;;;;;;4.20;2.10;;;12.50;68.80;;;;;;5037560;28;20077;-87
2022/03/13 12:01:41;;;;;;;;;;;12.50;68.80;;;;;;5037897;28;20041;-86
2022/03/13 12:04:14;;;;;;;3.53;1.85;;;12.50;68.80;;;;;;5037438;28;19943;-86
2022/03/13 12:06:50;;;;;;;3.63;2.00;;;12.50;68.80;;;;;;5036558;28;20437;-86
2022/03/13 12:09:25;;;;;;;3.88;2.05;;;12.50;68.80;;;;;;5017710;28;20045;-86
2022/03/13 12:12:03;;;;;;;4.25;2.13;;;12.50;68.90;;;;;;5036801;28;20049;-87
2022/03/13 12:14:53;;;;;;;3.88;2.10;;;12.60;68.90;;;;;;5037879;28;20046;-85
2022/03/13 12:17:25;;;;;;;5.30;2.13;;;12.60;68.90;;;;;;5038484;28;20053;-86
2022/03/13 12:19:57;;;;;;;3.58;2.00;;;12.60;68.90;;;;;;5036436;28;20103;-86
2022/03/13 12:22:25;;;;;;;3.85;2.22;;;12.60;68.70;;;;;;5035690;28;20050;-86
2022/03/13 12:25:02;;;;;;;4.65;2.10;;;12.60;68.70;;;;;;5036951;28;20135;-86
2022/03/13 12:27:29;;;;;;;3.85;2.10;;;12.70;68.70;;;;;;5034696;28;20049;-86
2022/03/13 12:29:58;;;;;;;3.60;1.98;;;12.70;68.70;;;;;;5034931;28;20054;-86
2022/03/13 12:32:30;;;;;;;4.53;2.13;;;12.70;68.50;;;;;;5036756;28;20050;-85
2022/03/13 12:34:58;;;;;;;3.70;1.90;;;12.80;68.30;;;;;;5035616;28;20132;-86
2022/03/13 12:37:28;;;;;;;3.55;1.80;;;12.80;68.10;;;;;;5036309;28;20049;-86
2022/03/13 12:39:58;;;;;;;3.20;1.70;;;12.80;67.90;;;;;;5036746;28;20132;-85
2022/03/13 12:42:34;;;;;;;3.42;1.90;;;12.90;67.70;;;;;;5033943;28;20451;-87
2022/03/13 12:45:06;;;;;;;4.18;2.10;;;12.90;67.50;;;;;;5033754;28;20149;-86
2022/03/13 12:47:39;;;;;;;3.28;1.90;;;12.90;67.40;;;;;;5053176;28;20049;-86
2022/03/13 12:50:09;;;;;;;4.10;1.92;;;12.90;67.20;;;;;;5037016;28;20056;-85
2022/03/13 12:52:36;;;;;;;5.28;2.00;;;12.90;67.10;;;;;;5036166;28;20053;-86
2022/03/13 12:55:06;;;;;;;3.33;2.05;;;12.90;67.10;;;;;;5036405;28;20099;-86
2022/03/13 12:57:33;;;;;;;3.30;1.70;;;12.90;66.90;;;;;;5034496;28;20514;-86
2022/03/13 13:00:00;;;;;;;3.67;1.92;;;12.90;66.90;;;;;;5033785;28;20103;-87